createdAt,value
2023-01-30T00:00:53.933Z,23.60
2023-01-30T00:01:57.557Z,25.77
2023-01-30T00:03:00.096Z,25.77
2023-01-30T00:04:10.504Z,26.83
2023-01-30T00:05:13.133Z,28.52
2023-01-30T00:06:17.060Z,30.13
2023-01-30T00:07:19.568Z,28.60
2023-01-30T00:08:23.362Z,25.70
2023-01-30T00:09:32.513Z,26.50
2023-01-30T00:10:35.999Z,22.77
2023-01-30T00:11:39.507Z,24.13
2023-01-30T00:12:43.451Z,26.13
2023-01-30T00:13:47.039Z,26.75
2023-01-30T00:14:57.145Z,24.83
2023-01-30T00:16:00.664Z,25.50
2023-01-30T00:17:04.128Z,26.38
2023-01-30T00:18:06.822Z,29.17
2023-01-30T00:19:10.376Z,23.13
2023-01-30T00:20:19.864Z,24.17
2023-01-30T00:21:23.559Z,25.48
2023-01-30T00:22:26.262Z,24.98
2023-01-30T00:23:30.486Z,22.63
2023-01-30T00:24:33.276Z,25.02
2023-01-30T00:25:43.630Z,24.77
2023-01-30T00:26:46.309Z,22.92
2023-01-30T00:27:51.163Z,23.33
2023-01-30T00:28:53.794Z,25.08
2023-01-30T00:30:02.707Z,24.00
2023-01-30T00:31:12.499Z,21.50
2023-01-30T00:32:15.911Z,23.20
2023-01-30T00:33:18.944Z,24.95
2023-01-30T00:34:25.521Z,20.60
2023-01-30T00:35:35.503Z,23.83
2023-01-30T00:36:46.612Z,24.92
2023-01-30T00:37:51.916Z,25.55
2023-01-30T00:38:55.435Z,22.77
2023-01-30T00:39:57.935Z,23.63
2023-01-30T00:41:07.507Z,25.30
2023-01-30T00:42:28.826Z,23.90
2023-01-30T00:43:51.364Z,20.40
2023-01-30T00:45:19.913Z,22.73
2023-01-30T00:46:46.542Z,24.85
2023-01-30T00:47:50.868Z,21.00
2023-01-30T00:48:53.969Z,19.25
2023-01-30T00:49:57.455Z,20.63
2023-01-30T00:50:59.953Z,21.30
2023-01-30T00:52:10.523Z,27.77
2023-01-30T00:53:13.777Z,22.45
2023-01-30T00:54:17.312Z,22.52
2023-01-30T00:55:20.197Z,23.38
2023-01-30T00:56:23.820Z,21.63
2023-01-30T00:57:32.517Z,23.35
2023-01-30T00:58:50.498Z,24.33
2023-01-30T00:59:53.077Z,23.10
2023-01-30T01:00:56.851Z,21.88
2023-01-30T01:01:59.507Z,17.63
2023-01-30T01:03:03.007Z,20.40
2023-01-30T01:04:13.523Z,23.48
2023-01-30T01:05:17.408Z,23.25
2023-01-30T01:06:20.153Z,24.95
2023-01-30T01:07:23.661Z,20.55
2023-01-30T01:08:26.265Z,23.33
2023-01-30T01:09:36.508Z,25.20
2023-01-30T01:10:39.460Z,22.45
2023-01-30T01:11:42.883Z,22.52
2023-01-30T01:12:45.938Z,19.35
2023-01-30T01:13:50.791Z,20.50
2023-01-30T01:15:00.001Z,21.77
2023-01-30T01:16:03.914Z,20.08
2023-01-30T01:17:06.524Z,21.83
2023-01-30T01:18:09.980Z,24.08
2023-01-30T01:19:12.488Z,22.98
2023-01-30T01:20:22.509Z,23.25
2023-01-30T01:21:25.115Z,21.30
2023-01-30T01:22:35.536Z,22.33
2023-01-30T01:23:38.945Z,24.65
2023-01-30T01:24:41.455Z,22.38
2023-01-30T01:25:44.856Z,23.50
2023-01-30T01:26:48.447Z,23.95
2023-01-30T01:27:57.506Z,21.88
2023-01-30T01:29:02.193Z,24.50
2023-01-30T01:30:05.014Z,24.92
2023-01-30T01:31:18.615Z,23.55
2023-01-30T01:32:21.315Z,22.85
2023-01-30T01:33:35.517Z,23.80
2023-01-30T01:34:38.974Z,23.20
2023-01-30T01:35:41.756Z,23.23
2023-01-30T01:36:54.279Z,23.45
2023-01-30T01:38:03.569Z,25.52
2023-01-30T01:39:07.523Z,21.20
2023-01-30T01:40:35.252Z,21.20
2023-01-30T01:41:37.761Z,19.92
2023-01-30T01:42:40.511Z,22.42
2023-01-30T01:44:05.511Z,18.90
2023-01-30T01:45:15.398Z,19.27
2023-01-30T01:46:22.443Z,19.67
2023-01-30T01:47:25.191Z,19.02
2023-01-30T01:48:36.506Z,18.48
2023-01-30T01:49:46.520Z,20.98
2023-01-30T01:50:51.491Z,20.38
2023-01-30T01:51:55.996Z,21.27
2023-01-30T01:53:01.099Z,17.98
2023-01-30T01:54:06.795Z,20.30
2023-01-30T01:55:16.997Z,19.50
2023-01-30T01:56:21.432Z,18.75
2023-01-30T01:57:47.510Z,18.85
2023-01-30T01:58:53.009Z,20.95
2023-01-30T02:00:06.569Z,20.42
2023-01-30T02:01:11.387Z,19.17
2023-01-30T02:02:15.502Z,17.98
2023-01-30T02:03:21.156Z,18.15
2023-01-30T02:04:39.000Z,20.35
2023-01-30T02:05:50.509Z,19.52
2023-01-30T02:06:52.978Z,20.40
2023-01-30T02:08:01.712Z,22.23
2023-01-30T02:09:06.580Z,21.58
2023-01-30T02:10:19.543Z,20.60
2023-01-30T02:11:27.717Z,18.08
2023-01-30T02:12:30.381Z,18.08
2023-01-30T02:13:34.180Z,20.00
2023-01-30T02:14:36.828Z,17.15
2023-01-30T02:15:46.865Z,22.23
2023-01-30T02:16:51.671Z,18.85
2023-01-30T02:17:54.194Z,23.38
2023-01-30T02:18:57.780Z,22.73
2023-01-30T02:20:04.912Z,25.73
2023-01-30T02:21:28.562Z,21.30
2023-01-30T02:22:49.398Z,22.13
2023-01-30T02:24:11.310Z,22.95
2023-01-30T02:25:25.909Z,20.27
2023-01-30T02:26:55.568Z,22.95
2023-01-30T02:28:09.649Z,20.23
2023-01-30T02:29:21.996Z,19.52
2023-01-30T02:30:39.469Z,18.90
2023-01-30T02:31:45.499Z,21.48
2023-01-30T02:32:57.518Z,25.08
2023-01-30T02:34:07.982Z,22.15
2023-01-30T02:35:14.594Z,21.80
2023-01-30T02:36:19.887Z,25.25
2023-01-30T02:37:28.861Z,23.25
2023-01-30T02:38:43.522Z,22.58
2023-01-30T02:39:53.775Z,21.65
2023-01-30T02:41:02.116Z,22.77
2023-01-30T02:42:06.396Z,23.55
2023-01-30T02:43:22.561Z,22.15
2023-01-30T02:44:28.148Z,22.50
2023-01-30T02:45:34.235Z,22.00
2023-01-30T02:46:40.361Z,24.42
2023-01-30T02:47:46.835Z,23.65
2023-01-30T02:48:57.544Z,24.08
2023-01-30T02:50:03.451Z,25.30
2023-01-30T02:51:07.552Z,22.48
2023-01-30T02:52:13.536Z,21.63
2023-01-30T02:53:22.520Z,20.30
2023-01-30T02:54:26.007Z,20.80
2023-01-30T02:55:29.347Z,24.25
2023-01-30T02:56:43.729Z,25.55
2023-01-30T02:57:59.521Z,20.13
2023-01-30T02:59:17.576Z,22.60
2023-01-30T03:00:23.661Z,23.67
2023-01-30T03:01:37.294Z,23.15
2023-01-30T03:02:50.880Z,21.50
2023-01-30T03:04:08.601Z,21.42
2023-01-30T03:05:20.136Z,19.48
2023-01-30T03:06:35.432Z,22.88
2023-01-30T03:07:46.089Z,20.83
2023-01-30T03:08:55.945Z,18.65
2023-01-30T03:10:09.513Z,17.02
2023-01-30T03:11:13.284Z,19.95
2023-01-30T03:12:19.150Z,16.95
2023-01-30T03:13:27.337Z,19.05
2023-01-30T03:14:34.677Z,15.95
2023-01-30T03:15:47.516Z,19.55
2023-01-30T03:16:52.363Z,15.48
2023-01-30T03:17:56.608Z,16.58
2023-01-30T03:19:01.657Z,14.25
2023-01-30T03:20:11.502Z,14.65
2023-01-30T03:21:14.934Z,16.10
2023-01-30T03:22:17.417Z,15.30
2023-01-30T03:23:20.891Z,10.65
2023-01-30T03:24:23.589Z,15.77
2023-01-30T03:25:34.525Z,14.23
2023-01-30T03:26:45.658Z,13.57
2023-01-30T03:27:50.324Z,12.43
2023-01-30T03:28:53.781Z,12.25
2023-01-30T03:29:57.176Z,16.67
2023-01-30T03:30:59.716Z,13.23
2023-01-30T03:32:09.535Z,13.82
2023-01-30T03:33:13.394Z,14.50
2023-01-30T03:34:23.537Z,12.60
2023-01-30T03:35:26.153Z,13.32
2023-01-30T03:36:29.589Z,11.55
2023-01-30T03:37:32.337Z,12.80
2023-01-30T03:38:36.557Z,13.43
2023-01-30T03:39:45.528Z,13.85
2023-01-30T03:40:49.112Z,12.32
2023-01-30T03:41:51.788Z,12.23
2023-01-30T03:43:01.555Z,10.93
2023-01-30T03:44:04.105Z,12.55
2023-01-30T03:45:08.026Z,10.80
2023-01-30T03:46:10.619Z,12.63
2023-01-30T03:47:20.521Z,11.60
2023-01-30T03:48:31.558Z,12.32
2023-01-30T03:49:35.036Z,9.07
2023-01-30T03:50:37.617Z,12.38
2023-01-30T03:51:41.152Z,9.23
2023-01-30T03:52:43.735Z,10.23
2023-01-30T03:53:53.566Z,9.18
2023-01-30T03:54:56.089Z,10.68
2023-01-30T03:55:59.520Z,10.10
2023-01-30T03:57:02.031Z,9.25
2023-01-30T03:58:25.526Z,11.07
2023-01-30T03:59:34.512Z,9.27
2023-01-30T04:00:38.070Z,10.68
2023-01-30T04:01:40.553Z,10.27
2023-01-30T04:02:44.095Z,9.70
2023-01-30T04:03:48.854Z,10.20
2023-01-30T04:04:58.561Z,8.43
2023-01-30T04:06:02.028Z,9.23
2023-01-30T04:07:04.590Z,10.02
2023-01-30T04:08:08.034Z,9.95
2023-01-30T04:09:10.540Z,8.50
2023-01-30T04:10:21.569Z,8.40
2023-01-30T04:11:24.054Z,9.77
2023-01-30T04:12:27.493Z,8.88
2023-01-30T04:13:30.022Z,9.20
2023-01-30T04:14:40.528Z,10.57
2023-01-30T04:15:49.540Z,10.18
2023-01-30T04:16:52.989Z,9.38
2023-01-30T04:17:55.459Z,9.20
2023-01-30T04:19:00.235Z,12.20
2023-01-30T04:20:09.541Z,9.98
2023-01-30T04:21:13.200Z,8.57
2023-01-30T04:22:15.827Z,10.80
2023-01-30T04:23:19.345Z,9.18
2023-01-30T04:24:21.864Z,7.97
2023-01-30T04:25:31.556Z,9.00
2023-01-30T04:26:35.193Z,8.75
2023-01-30T04:27:37.744Z,8.77
2023-01-30T04:28:41.536Z,8.43
2023-01-30T04:29:44.042Z,9.63
2023-01-30T04:30:54.596Z,8.70
2023-01-30T04:31:58.077Z,8.00
2023-01-30T04:33:00.682Z,8.50
2023-01-30T04:34:05.494Z,7.00
2023-01-30T04:35:08.324Z,7.93
2023-01-30T04:36:19.558Z,10.23
2023-01-30T04:37:22.968Z,10.50
2023-01-30T04:38:25.926Z,7.70
2023-01-30T04:39:29.368Z,7.97
2023-01-30T04:40:31.993Z,7.38
2023-01-30T04:41:41.590Z,7.07
2023-01-30T04:42:45.036Z,7.72
2023-01-30T04:43:47.564Z,7.53
2023-01-30T04:44:50.996Z,8.23
2023-01-30T04:45:53.927Z,8.45
2023-01-30T04:47:03.544Z,8.43
2023-01-30T04:48:06.285Z,9.95
2023-01-30T04:49:12.741Z,6.47
2023-01-30T04:50:15.403Z,6.55
2023-01-30T04:51:18.915Z,7.15
2023-01-30T04:52:28.577Z,6.68
2023-01-30T04:53:32.097Z,6.15
2023-01-30T04:54:34.603Z,6.43
2023-01-30T04:55:38.310Z,8.43
2023-01-30T04:56:41.713Z,8.93
2023-01-30T04:57:50.548Z,5.65
2023-01-30T04:59:07.657Z,7.25
2023-01-30T05:00:11.021Z,6.45
2023-01-30T05:01:15.416Z,7.53
2023-01-30T05:02:17.941Z,7.25
2023-01-30T05:03:27.604Z,6.43
2023-01-30T05:04:31.573Z,7.32
2023-01-30T05:05:35.329Z,7.43
2023-01-30T05:06:37.859Z,6.63
2023-01-30T05:07:41.296Z,6.75
2023-01-30T05:08:50.537Z,7.25
2023-01-30T05:09:53.975Z,6.90
2023-01-30T05:11:04.544Z,8.38
2023-01-30T05:12:08.043Z,6.25
2023-01-30T05:13:10.552Z,6.07
2023-01-30T05:14:20.596Z,5.28
2023-01-30T05:15:24.223Z,6.30
2023-01-30T05:16:27.041Z,6.68
2023-01-30T05:17:30.637Z,6.10
2023-01-30T05:18:34.119Z,6.50
2023-01-30T05:19:45.539Z,5.75
2023-01-30T05:20:54.527Z,5.78
2023-01-30T05:21:57.987Z,5.50
2023-01-30T05:23:00.456Z,5.70
2023-01-30T05:24:10.519Z,5.50
2023-01-30T05:25:19.740Z,5.60
2023-01-30T05:26:23.589Z,5.45
2023-01-30T05:27:26.222Z,4.90
2023-01-30T05:28:30.111Z,5.35
2023-01-30T05:29:39.538Z,4.97
2023-01-30T05:30:43.626Z,6.78
2023-01-30T05:31:46.820Z,5.70
2023-01-30T05:32:58.505Z,4.90
2023-01-30T05:34:07.581Z,5.07
2023-01-30T05:35:12.484Z,5.10
2023-01-30T05:36:16.346Z,6.53
2023-01-30T05:37:19.808Z,5.68
2023-01-30T05:38:23.137Z,4.95
2023-01-30T05:39:33.527Z,5.63
2023-01-30T05:40:42.526Z,6.22
2023-01-30T05:41:45.991Z,5.18
2023-01-30T05:42:48.493Z,5.25
2023-01-30T05:43:52.340Z,5.70
2023-01-30T05:45:01.534Z,4.80
2023-01-30T05:46:06.448Z,5.85
2023-01-30T05:47:10.036Z,7.55
2023-01-30T05:48:13.528Z,6.97
2023-01-30T05:49:16.041Z,7.10
2023-01-30T05:50:27.527Z,6.38
2023-01-30T05:51:30.961Z,6.70
2023-01-30T05:52:33.533Z,5.82
2023-01-30T05:53:37.323Z,4.90
2023-01-30T05:54:39.920Z,5.47
2023-01-30T05:55:50.558Z,6.82
2023-01-30T05:57:00.668Z,5.25
2023-01-30T05:58:23.498Z,6.07
2023-01-30T05:59:27.013Z,5.53
2023-01-30T06:00:29.744Z,5.22
2023-01-30T06:01:39.537Z,5.70
2023-01-30T06:02:48.593Z,4.25
2023-01-30T06:03:52.303Z,4.32
2023-01-30T06:05:01.571Z,6.05
2023-01-30T06:06:07.363Z,7.50
2023-01-30T06:07:17.547Z,7.10
2023-01-30T06:08:21.188Z,5.13
2023-01-30T06:09:31.498Z,3.95
2023-01-30T06:10:34.062Z,5.50
2023-01-30T06:11:37.480Z,5.60
2023-01-30T06:12:39.936Z,5.53
2023-01-30T06:13:43.379Z,5.80
2023-01-30T06:14:52.643Z,5.18
2023-01-30T06:15:57.470Z,7.32
2023-01-30T06:17:00.963Z,5.03
2023-01-30T06:18:03.509Z,6.00
2023-01-30T06:19:07.115Z,5.50
2023-01-30T06:20:16.555Z,5.30
2023-01-30T06:21:21.405Z,5.00
2023-01-30T06:22:23.904Z,5.88
2023-01-30T06:23:27.615Z,4.60
2023-01-30T06:24:30.587Z,7.32
2023-01-30T06:25:40.677Z,5.78
2023-01-30T06:26:44.284Z,3.90
2023-01-30T06:27:46.957Z,6.93
2023-01-30T06:28:50.386Z,6.72
2023-01-30T06:29:52.897Z,5.63
2023-01-30T06:31:03.602Z,7.10
2023-01-30T06:32:07.340Z,4.88
2023-01-30T06:33:10.283Z,6.35
2023-01-30T06:34:13.807Z,6.07
2023-01-30T06:35:22.562Z,4.63
2023-01-30T06:36:27.470Z,5.78
2023-01-30T06:37:30.005Z,7.00
2023-01-30T06:38:33.541Z,5.70
2023-01-30T06:39:36.048Z,5.53
2023-01-30T06:40:45.542Z,4.35
2023-01-30T06:41:55.568Z,4.78
2023-01-30T06:42:58.159Z,5.28
2023-01-30T06:44:01.718Z,5.55
2023-01-30T06:45:04.373Z,5.10
2023-01-30T06:46:14.616Z,5.45
2023-01-30T06:47:18.071Z,5.85
2023-01-30T06:48:20.659Z,5.85
2023-01-30T06:49:24.094Z,5.82
2023-01-30T06:50:27.628Z,5.05
2023-01-30T06:51:39.607Z,6.57
2023-01-30T06:52:42.482Z,6.40
2023-01-30T06:53:45.960Z,4.05
2023-01-30T06:54:48.484Z,6.38
2023-01-30T06:55:51.937Z,5.25
2023-01-30T06:57:01.535Z,5.68
2023-01-30T06:58:25.540Z,6.10
2023-01-30T06:59:29.079Z,5.25
2023-01-30T07:00:31.782Z,5.15
2023-01-30T07:01:41.597Z,4.57
2023-01-30T07:02:50.548Z,7.65
2023-01-30T07:03:54.022Z,8.18
2023-01-30T07:04:56.552Z,4.90
2023-01-30T07:05:59.991Z,4.53
2023-01-30T07:07:04.650Z,5.63
2023-01-30T07:08:15.553Z,6.60
2023-01-30T07:09:19.110Z,4.95
2023-01-30T07:10:21.669Z,6.60
2023-01-30T07:11:25.150Z,5.55
2023-01-30T07:12:34.572Z,4.90
2023-01-30T07:13:38.042Z,5.82
2023-01-30T07:14:40.567Z,4.93
2023-01-30T07:15:44.060Z,5.18
2023-01-30T07:16:46.532Z,7.15
2023-01-30T07:17:56.586Z,6.88
2023-01-30T07:19:00.225Z,6.43
2023-01-30T07:20:02.880Z,6.35
2023-01-30T07:21:06.403Z,6.47
2023-01-30T07:22:10.254Z,6.05
2023-01-30T07:23:20.561Z,7.13
2023-01-30T07:24:23.109Z,6.03
2023-01-30T07:25:28.038Z,5.40
2023-01-30T07:26:31.586Z,6.20
2023-01-30T07:27:35.250Z,5.93
2023-01-30T07:28:45.542Z,6.40
2023-01-30T07:29:48.006Z,5.50
2023-01-30T07:30:52.972Z,4.05
2023-01-30T07:31:55.660Z,9.30
2023-01-30T07:33:06.581Z,5.68
2023-01-30T07:34:10.009Z,5.13
2023-01-30T07:35:19.022Z,5.38
2023-01-30T07:36:22.677Z,6.28
2023-01-30T07:37:26.461Z,5.43
2023-01-30T07:38:29.879Z,7.38
2023-01-30T07:39:32.379Z,5.57
2023-01-30T07:40:42.551Z,6.30
2023-01-30T07:41:45.978Z,5.90
2023-01-30T07:42:57.438Z,6.35
2023-01-30T07:44:00.863Z,5.65
2023-01-30T07:45:09.561Z,7.88
2023-01-30T07:46:19.576Z,5.53
2023-01-30T07:47:22.263Z,6.30
2023-01-30T07:48:25.703Z,5.50
2023-01-30T07:49:28.222Z,4.72
2023-01-30T07:50:31.776Z,5.00
2023-01-30T07:51:40.571Z,4.57
2023-01-30T07:52:45.427Z,4.03
2023-01-30T07:53:51.663Z,4.68
2023-01-30T07:54:54.194Z,5.07
2023-01-30T07:56:04.534Z,5.30
2023-01-30T07:57:07.963Z,5.15
2023-01-30T07:58:33.835Z,4.95
2023-01-30T07:59:37.241Z,5.47
2023-01-30T08:00:40.795Z,4.78
2023-01-30T08:01:50.566Z,6.18
2023-01-30T08:02:54.133Z,5.45
2023-01-30T08:03:57.665Z,5.97
2023-01-30T08:05:00.341Z,5.00
2023-01-30T08:06:10.570Z,6.00
2023-01-30T08:07:27.566Z,4.55
2023-01-30T08:08:37.545Z,4.47
2023-01-30T08:09:41.018Z,5.60
2023-01-30T08:10:44.740Z,4.57
2023-01-30T08:11:53.548Z,4.35
2023-01-30T08:13:06.580Z,3.80
2023-01-30T08:14:09.108Z,4.60
2023-01-30T08:15:12.757Z,5.28
2023-01-30T08:16:16.337Z,4.68
2023-01-30T08:17:26.631Z,3.35
2023-01-30T08:18:30.627Z,5.35
2023-01-30T08:19:33.164Z,4.07
2023-01-30T08:20:36.656Z,3.58
2023-01-30T08:21:39.364Z,4.07
2023-01-30T08:22:49.595Z,3.97
2023-01-30T08:23:54.345Z,4.03
2023-01-30T08:24:58.013Z,4.72
2023-01-30T08:26:01.477Z,4.57
2023-01-30T08:27:04.959Z,4.80
2023-01-30T08:28:14.592Z,4.00
2023-01-30T08:29:18.312Z,4.07
2023-01-30T08:30:22.495Z,3.88
2023-01-30T08:31:25.251Z,4.90
2023-01-30T08:32:28.805Z,4.13
2023-01-30T08:33:38.586Z,3.53
2023-01-30T08:34:42.133Z,3.17
2023-01-30T08:35:45.577Z,3.28
2023-01-30T08:36:50.247Z,4.40
2023-01-30T08:38:00.578Z,3.45
2023-01-30T08:39:12.597Z,4.40
2023-01-30T08:40:17.172Z,3.30
2023-01-30T08:41:19.903Z,4.05
2023-01-30T08:42:23.312Z,4.10
2023-01-30T08:43:26.873Z,5.40
2023-01-30T08:44:36.560Z,3.70
2023-01-30T08:45:40.084Z,3.83
2023-01-30T08:46:43.588Z,6.55
2023-01-30T08:47:47.043Z,3.90
2023-01-30T08:48:50.509Z,5.03
2023-01-30T08:50:00.637Z,5.38
2023-01-30T08:51:04.099Z,5.30
2023-01-30T08:52:06.623Z,3.80
2023-01-30T08:53:10.736Z,5.32
2023-01-30T08:54:14.745Z,4.70
2023-01-30T08:55:24.563Z,5.80
2023-01-30T08:56:27.131Z,4.50
2023-01-30T08:57:32.605Z,4.60
2023-01-30T08:58:57.542Z,5.20
2023-01-30T09:00:07.596Z,3.72
2023-01-30T09:01:11.278Z,4.85
2023-01-30T09:02:14.944Z,4.05
2023-01-30T09:03:18.450Z,5.55
2023-01-30T09:04:26.567Z,3.95
2023-01-30T09:05:36.600Z,4.93
2023-01-30T09:06:40.129Z,5.00
2023-01-30T09:07:42.874Z,4.85
2023-01-30T09:08:46.310Z,6.28
2023-01-30T09:09:58.107Z,5.50
2023-01-30T09:11:07.566Z,5.90
2023-01-30T09:12:17.631Z,10.05
2023-01-30T09:13:21.086Z,7.38
2023-01-30T09:14:24.621Z,8.88
2023-01-30T09:15:28.053Z,9.60
2023-01-30T09:16:31.545Z,7.18
2023-01-30T09:17:41.555Z,7.97
2023-01-30T09:18:45.823Z,10.63
2023-01-30T09:19:54.592Z,11.35
2023-01-30T09:21:04.386Z,8.70
2023-01-30T09:22:08.513Z,9.45
2023-01-30T09:23:11.937Z,12.57
2023-01-30T09:24:15.374Z,12.05
2023-01-30T09:25:25.583Z,9.38
2023-01-30T09:26:35.584Z,11.68
2023-01-30T09:27:38.242Z,8.73
2023-01-30T09:28:41.763Z,11.05
2023-01-30T09:29:45.399Z,8.55
2023-01-30T09:30:49.126Z,11.88
2023-01-30T09:31:58.609Z,6.88
2023-01-30T09:33:02.366Z,17.27
2023-01-30T09:34:04.993Z,10.70
2023-01-30T09:35:09.361Z,10.93
2023-01-30T09:36:12.804Z,9.05
2023-01-30T09:37:22.552Z,15.23
2023-01-30T09:38:26.150Z,7.57
2023-01-30T09:39:30.402Z,10.30
2023-01-30T09:40:36.836Z,10.98
2023-01-30T09:41:50.673Z,8.27
2023-01-30T09:43:07.563Z,7.18
2023-01-30T09:44:21.417Z,13.70
2023-01-30T09:45:39.741Z,10.73
2023-01-30T09:46:47.554Z,7.10
2023-01-30T09:48:01.806Z,11.05
2023-01-30T09:49:10.252Z,12.45
2023-01-30T09:50:21.415Z,10.85
2023-01-30T09:51:33.025Z,9.50
2023-01-30T09:52:39.439Z,8.45
2023-01-30T09:53:59.111Z,9.00
2023-01-30T09:55:08.064Z,11.63
2023-01-30T09:56:12.081Z,6.18
2023-01-30T09:57:21.368Z,10.38
2023-01-30T09:58:34.956Z,12.43
2023-01-30T09:59:55.658Z,10.75
2023-01-30T10:01:06.452Z,9.00
2023-01-30T10:02:20.157Z,9.70
2023-01-30T10:03:27.780Z,11.63
2023-01-30T10:04:33.490Z,7.50
2023-01-30T10:05:47.697Z,10.80
2023-01-30T10:06:56.810Z,9.15
2023-01-30T10:08:06.270Z,12.43
2023-01-30T10:09:11.796Z,7.75
2023-01-30T10:10:25.519Z,9.35
2023-01-30T10:11:40.962Z,7.43
2023-01-30T10:12:48.702Z,8.02
2023-01-30T10:14:05.858Z,8.73
2023-01-30T10:15:31.657Z,7.68
2023-01-30T10:16:39.092Z,9.00
2023-01-30T10:17:46.376Z,7.35
2023-01-30T10:19:09.532Z,6.10
2023-01-30T10:20:18.583Z,6.53
2023-01-30T10:21:24.669Z,4.97
2023-01-30T10:22:35.738Z,9.65
2023-01-30T10:24:05.678Z,8.65
2023-01-30T10:25:15.136Z,6.28
2023-01-30T10:26:20.468Z,9.57
2023-01-30T10:27:26.574Z,6.43
2023-01-30T10:28:31.719Z,9.73
2023-01-30T10:29:42.612Z,7.60
2023-01-30T10:30:53.690Z,17.02
2023-01-30T10:32:00.551Z,8.43
2023-01-30T10:33:05.527Z,7.75
2023-01-30T10:34:18.639Z,7.93
2023-01-30T10:35:26.067Z,12.98
2023-01-30T10:36:41.573Z,11.00
2023-01-30T10:37:48.325Z,12.63
2023-01-30T10:38:52.790Z,10.77
2023-01-30T10:39:58.387Z,12.52
2023-01-30T10:41:05.466Z,5.75
2023-01-30T10:42:17.590Z,8.50
2023-01-30T10:43:26.037Z,8.00
2023-01-30T10:44:29.516Z,10.10
2023-01-30T10:45:37.759Z,11.15
2023-01-30T10:46:56.568Z,8.30
2023-01-30T10:48:03.685Z,6.20
2023-01-30T10:49:13.403Z,5.55
2023-01-30T10:50:19.035Z,9.68
2023-01-30T10:51:26.800Z,7.70
2023-01-30T10:52:43.550Z,8.13
2023-01-30T10:53:48.585Z,11.30
2023-01-30T10:54:57.206Z,14.68
2023-01-30T10:56:04.764Z,7.82
2023-01-30T10:57:22.577Z,16.25
2023-01-30T10:58:38.696Z,28.40
2023-01-30T10:59:58.559Z,30.65
2023-01-30T11:01:03.079Z,28.38
2023-01-30T11:02:18.611Z,29.98
2023-01-30T11:03:28.383Z,23.45
2023-01-30T11:04:32.502Z,39.17
2023-01-30T11:05:40.895Z,20.75
2023-01-30T11:06:44.628Z,23.65
2023-01-30T11:07:55.527Z,11.73
2023-01-30T11:08:59.075Z,24.95
2023-01-30T11:10:02.720Z,17.15
2023-01-30T11:11:20.964Z,12.40
2023-01-30T11:12:24.347Z,13.05
2023-01-30T11:13:37.563Z,27.55
2023-01-30T11:14:53.993Z,13.10
2023-01-30T11:15:58.673Z,12.73
2023-01-30T11:17:02.623Z,13.05
2023-01-30T11:19:16.599Z,15.93
2023-01-30T11:19:58.372Z,13.60
2023-01-30T11:21:07.199Z,12.52
2023-01-30T11:22:13.183Z,15.48
2023-01-30T11:23:33.618Z,13.18
2023-01-30T11:24:41.105Z,10.27
2023-01-30T11:26:10.129Z,16.85
2023-01-30T11:27:19.034Z,7.88
2023-01-30T11:28:22.464Z,5.35
2023-01-30T11:29:38.675Z,13.30
2023-01-30T11:30:43.640Z,9.05
2023-01-30T11:31:51.975Z,13.57
2023-01-30T11:33:06.502Z,10.25
2023-01-30T11:34:21.700Z,14.40
2023-01-30T11:35:33.665Z,5.53
2023-01-30T11:36:38.361Z,10.63
2023-01-30T11:37:42.316Z,15.30
2023-01-30T11:38:56.235Z,13.88
2023-01-30T11:40:06.567Z,12.07
2023-01-30T11:41:19.688Z,19.83
2023-01-30T11:42:26.231Z,12.20
2023-01-30T11:43:30.368Z,17.25
2023-01-30T11:44:36.403Z,15.10
2023-01-30T11:45:47.614Z,15.77
2023-01-30T11:46:57.600Z,15.90
2023-01-30T11:48:04.736Z,19.83
2023-01-30T11:49:47.178Z,28.00
2023-01-30T11:50:49.644Z,17.50
2023-01-30T11:51:55.007Z,17.58
2023-01-30T11:53:02.805Z,19.67
2023-01-30T11:54:07.566Z,23.38
2023-01-30T11:55:19.771Z,44.05
2023-01-30T11:56:25.811Z,35.47
2023-01-30T11:57:29.491Z,28.30
2023-01-30T11:58:39.993Z,14.15
2023-01-30T11:59:56.107Z,14.65
2023-01-30T12:01:06.580Z,13.32
2023-01-30T12:02:15.733Z,13.15
2023-01-30T12:03:23.333Z,12.18
2023-01-30T12:04:27.421Z,16.23
2023-01-30T12:05:40.665Z,8.93
2023-01-30T12:06:45.245Z,11.48
2023-01-30T12:07:47.808Z,10.38
2023-01-30T12:08:54.159Z,10.23
2023-01-30T12:09:57.360Z,16.67
2023-01-30T12:11:08.776Z,15.98
2023-01-30T12:12:28.208Z,14.55
2023-01-30T12:13:33.868Z,10.73
2023-01-30T12:14:40.813Z,16.58
2023-01-30T12:15:45.731Z,14.95
2023-01-30T12:17:01.518Z,16.88
2023-01-30T12:18:14.732Z,10.95
2023-01-30T12:19:25.281Z,13.00
2023-01-30T12:20:39.562Z,15.40
2023-01-30T12:21:46.409Z,10.20
2023-01-30T12:23:00.555Z,18.17
2023-01-30T12:24:17.832Z,15.25
2023-01-30T12:25:23.582Z,8.90
2023-01-30T12:26:28.601Z,8.77
2023-01-30T12:27:45.605Z,10.05
2023-01-30T12:28:53.968Z,13.63
2023-01-30T12:30:01.464Z,6.53
2023-01-30T12:31:08.386Z,9.88
2023-01-30T12:32:14.719Z,9.43
2023-01-30T12:33:25.719Z,12.13
2023-01-30T12:34:29.439Z,13.95
2023-01-30T12:35:39.009Z,12.68
2023-01-30T12:36:46.716Z,7.78
2023-01-30T12:37:59.737Z,8.15
2023-01-30T12:39:22.543Z,15.65
2023-01-30T12:40:30.539Z,10.90
2023-01-30T12:41:45.074Z,11.70
2023-01-30T12:43:01.643Z,7.63
2023-01-30T12:44:29.639Z,16.80
2023-01-30T12:45:34.628Z,18.15
2023-01-30T12:46:47.046Z,14.85
2023-01-30T12:47:55.949Z,10.57
2023-01-30T12:49:16.542Z,8.32
2023-01-30T12:50:22.906Z,13.07
2023-01-30T12:51:35.227Z,14.75
2023-01-30T12:52:55.204Z,20.85
2023-01-30T12:54:08.594Z,14.18
2023-01-30T12:55:21.160Z,8.88
2023-01-30T12:56:38.443Z,13.55
2023-01-30T12:57:45.059Z,11.77
2023-01-30T12:59:10.555Z,19.05
2023-01-30T13:00:29.472Z,15.32
2023-01-30T13:01:38.418Z,15.95
2023-01-30T13:02:50.724Z,17.88
2023-01-30T13:04:03.564Z,26.73
2023-01-30T13:05:22.538Z,12.18
2023-01-30T13:06:33.768Z,6.82
2023-01-30T13:07:41.736Z,14.02
2023-01-30T13:08:54.852Z,7.50
2023-01-30T13:10:11.606Z,9.73
2023-01-30T13:11:23.271Z,13.32
2023-01-30T13:12:33.814Z,10.93
2023-01-30T13:13:42.629Z,9.25
2023-01-30T13:14:56.562Z,12.70
2023-01-30T13:16:04.309Z,16.92
2023-01-30T13:17:16.159Z,20.38
2023-01-30T13:18:26.071Z,21.42
2023-01-30T13:19:40.914Z,17.55
2023-01-30T13:21:03.618Z,22.17
2023-01-30T13:22:10.807Z,7.03
2023-01-30T13:23:17.918Z,11.18
2023-01-30T13:24:24.197Z,12.68
2023-01-30T13:25:31.611Z,28.42
2023-01-30T13:26:42.650Z,15.25
2023-01-30T13:27:47.329Z,15.38
2023-01-30T13:28:52.902Z,11.20
2023-01-30T13:29:56.627Z,23.05
2023-01-30T13:31:00.794Z,15.68
2023-01-30T13:32:13.727Z,11.75
2023-01-30T13:33:21.923Z,14.57
2023-01-30T13:34:30.596Z,26.20
2023-01-30T13:35:36.349Z,13.93
2023-01-30T13:36:51.591Z,17.83
2023-01-30T13:37:55.558Z,18.15
2023-01-30T13:39:01.328Z,24.38
2023-01-30T13:40:06.578Z,31.73
2023-01-30T13:41:11.976Z,21.58
2023-01-30T13:42:28.571Z,27.00
2023-01-30T13:43:40.608Z,16.15
2023-01-30T13:44:44.178Z,18.75
2023-01-30T13:45:48.913Z,12.95
2023-01-30T13:46:53.824Z,23.02
2023-01-30T13:48:11.536Z,27.48
2023-01-30T13:49:17.678Z,23.27
2023-01-30T13:50:28.376Z,8.65
2023-01-30T13:51:39.293Z,17.92
2023-01-30T13:52:45.878Z,22.83
2023-01-30T13:53:58.581Z,37.38
2023-01-30T13:55:05.657Z,30.17
2023-01-30T13:56:32.945Z,19.80
2023-01-30T13:57:45.118Z,20.35
2023-01-30T13:58:58.567Z,11.60
2023-01-30T14:00:23.756Z,10.38
2023-01-30T14:01:49.634Z,19.55
2023-01-30T14:03:13.567Z,11.02
2023-01-30T14:04:51.567Z,12.45
2023-01-30T14:06:03.575Z,9.73
2023-01-30T14:07:10.802Z,10.07
2023-01-30T14:08:15.129Z,9.60
2023-01-30T14:09:26.319Z,6.88
2023-01-30T14:10:36.578Z,4.50
2023-01-30T14:11:44.839Z,7.85
2023-01-30T14:12:49.438Z,6.32
2023-01-30T14:13:53.609Z,10.90
2023-01-30T14:15:02.392Z,11.20
2023-01-30T14:16:13.715Z,12.70
2023-01-30T14:17:18.324Z,4.40
2023-01-30T14:18:23.513Z,8.98
2023-01-30T14:19:44.047Z,8.18
2023-01-30T14:20:48.439Z,6.60
2023-01-30T14:22:06.579Z,5.15
2023-01-30T14:23:22.121Z,9.35
2023-01-30T14:24:25.279Z,8.32
2023-01-30T14:25:35.289Z,7.35
2023-01-30T14:26:57.084Z,10.00
2023-01-30T14:28:21.607Z,9.70
2023-01-30T14:29:41.073Z,7.80
2023-01-30T14:30:49.084Z,10.95
2023-01-30T14:31:59.748Z,10.18
2023-01-30T14:33:04.124Z,10.18
2023-01-30T14:34:27.599Z,14.02
2023-01-30T14:35:31.712Z,14.13
2023-01-30T14:36:42.593Z,10.55
2023-01-30T14:37:51.443Z,11.55
2023-01-30T14:38:58.818Z,7.60
2023-01-30T14:40:01.638Z,11.05
2023-01-30T14:41:30.589Z,9.50
2023-01-30T14:42:34.058Z,10.80
2023-01-30T14:43:52.260Z,8.30
2023-01-30T14:44:56.292Z,14.27
2023-01-30T14:46:09.052Z,12.23
2023-01-30T14:47:32.420Z,7.40
2023-01-30T14:48:45.048Z,8.45